createdAt,value
2023-01-04T11:20:10.712Z,13.18
2023-01-04T11:23:19.728Z,13.85
2023-01-04T11:26:15.689Z,15.35
2023-01-04T11:29:05.697Z,16.05
2023-01-04T11:31:55.962Z,14.68
2023-01-04T11:34:51.707Z,16.98
2023-01-04T11:37:38.764Z,16.08
2023-01-04T11:40:30.711Z,13.13
2023-01-04T11:43:25.728Z,13.38
2023-01-04T11:46:21.735Z,15.30
2023-01-04T11:49:09.720Z,14.93
2023-01-04T11:51:51.740Z,14.40
2023-01-04T11:54:45.684Z,14.30
2023-01-04T11:57:32.698Z,14.52
2023-01-04T12:00:42.707Z,15.35
2023-01-04T12:03:36.718Z,13.40
2023-01-04T12:06:26.687Z,12.98
2023-01-04T12:09:07.718Z,12.77
2023-01-04T12:11:50.850Z,14.80
2023-01-04T12:14:41.733Z,14.25
2023-01-04T12:17:29.227Z,12.52
2023-01-04T12:20:19.563Z,16.60
2023-01-04T12:22:53.707Z,14.65
2023-01-04T12:25:53.717Z,12.35
2023-01-04T12:28:35.778Z,14.80
2023-01-04T12:31:32.732Z,15.85
2023-01-04T12:34:34.705Z,15.70
2023-01-04T12:37:15.758Z,15.90
2023-01-04T12:39:55.724Z,15.73
2023-01-04T12:42:43.717Z,14.95
2023-01-04T12:45:20.525Z,10.85
2023-01-04T12:48:36.741Z,14.45
2023-01-04T12:51:33.327Z,15.07
2023-01-04T12:54:09.765Z,15.82
2023-01-04T12:57:15.728Z,15.38
2023-01-04T13:00:15.694Z,15.43
2023-01-04T13:03:28.762Z,14.38
2023-01-04T13:08:50.802Z,13.93
2023-01-04T13:11:53.724Z,15.88
2023-01-04T13:14:57.783Z,13.20
2023-01-04T13:17:38.724Z,13.05
2023-01-04T13:20:22.835Z,11.95
2023-01-04T13:23:05.729Z,8.48
2023-01-04T13:25:45.787Z,14.00
2023-01-04T13:28:26.715Z,12.02
2023-01-04T13:31:07.780Z,10.73
2023-01-04T13:33:41.796Z,12.40
2023-01-04T13:36:29.760Z,14.18
2023-01-04T13:39:10.744Z,9.77
2023-01-04T13:42:04.713Z,13.43
2023-01-04T13:45:19.547Z,12.13
2023-01-04T13:48:01.695Z,12.52
2023-01-04T13:50:47.373Z,11.30
2023-01-04T13:53:35.973Z,11.27
2023-01-04T13:56:27.729Z,7.83
2023-01-04T13:59:15.745Z,7.85
2023-01-04T14:01:50.154Z,8.82
2023-01-04T14:04:42.729Z,8.93
2023-01-04T14:07:29.695Z,9.32
2023-01-04T14:10:10.809Z,9.25
2023-01-04T14:12:52.707Z,7.05
2023-01-04T14:15:40.771Z,9.20
2023-01-04T14:18:32.706Z,7.38
2023-01-04T14:21:22.766Z,9.00
2023-01-04T14:24:10.735Z,8.07
2023-01-04T14:26:44.836Z,8.57
2023-01-04T14:29:38.688Z,7.78
2023-01-04T14:32:14.785Z,7.18
2023-01-04T14:35:01.700Z,7.15
2023-01-04T14:37:35.838Z,8.02
2023-01-04T14:40:30.730Z,7.10
2023-01-04T14:43:04.827Z,8.98
2023-01-04T14:45:51.753Z,7.35
2023-01-04T14:48:25.810Z,5.55
2023-01-04T14:51:13.745Z,7.13
2023-01-04T14:53:47.851Z,6.53
2023-01-04T14:56:34.681Z,6.45
2023-01-04T14:59:08.774Z,9.85
2023-01-04T15:01:56.864Z,6.95
2023-01-04T15:04:30.880Z,8.40
2023-01-04T15:07:56.722Z,5.68
2023-01-04T15:10:38.710Z,6.57
2023-01-04T15:13:39.082Z,6.78
2023-01-04T15:16:26.784Z,5.65
2023-01-04T15:19:00.848Z,6.10
2023-01-04T15:21:47.708Z,6.35
2023-01-04T15:24:21.779Z,6.22
2023-01-04T15:27:09.778Z,5.22
2023-01-04T15:29:50.838Z,5.97
2023-01-04T15:32:30.744Z,6.30
2023-01-04T15:35:22.693Z,3.92
2023-01-04T15:37:56.689Z,4.90
2023-01-04T15:40:44.747Z,4.25
2023-01-04T15:43:18.747Z,4.32
2023-01-04T15:46:06.781Z,4.15
2023-01-04T15:48:46.692Z,4.35
2023-01-04T15:51:34.735Z,4.47
2023-01-04T15:54:08.705Z,3.40
2023-01-04T15:56:56.773Z,3.72
2023-01-04T15:59:30.642Z,3.05
2023-01-04T16:02:18.785Z,3.47
2023-01-04T16:04:58.735Z,4.18
2023-01-04T16:07:46.821Z,4.05
2023-01-04T16:10:27.737Z,3.60
2023-01-04T16:13:08.798Z,3.75
2023-01-04T16:15:48.861Z,4.03
2023-01-04T16:18:32.528Z,3.13
2023-01-04T16:21:21.813Z,4.63
2023-01-04T16:24:07.284Z,3.90
2023-01-04T16:27:03.741Z,3.88
2023-01-04T16:29:37.835Z,3.92
2023-01-04T16:32:25.708Z,3.40
2023-01-04T16:35:06.718Z,4.15
2023-01-04T16:38:00.729Z,3.95
2023-01-04T16:40:47.739Z,4.57
2023-01-04T16:43:28.737Z,3.42
2023-01-04T16:46:25.746Z,4.10
2023-01-04T16:49:20.755Z,3.65
2023-01-04T16:52:01.897Z,3.70
2023-01-04T16:54:41.741Z,4.20
2023-01-04T16:57:23.934Z,3.58
2023-01-04T17:00:03.743Z,4.07
2023-01-04T17:02:44.832Z,3.35
2023-01-04T17:05:24.745Z,3.63
2023-01-04T17:08:05.980Z,3.05
2023-01-04T17:10:45.749Z,3.00
2023-01-04T17:13:33.741Z,2.90
2023-01-04T17:16:14.804Z,3.28
2023-01-04T17:19:09.743Z,3.10
2023-01-04T17:21:57.736Z,3.20
2023-01-04T17:24:31.815Z,3.13
2023-01-04T17:27:18.723Z,3.45
2023-01-04T17:29:59.788Z,3.00
2023-01-04T17:32:39.728Z,3.38
2023-01-04T17:35:20.823Z,3.03
2023-01-04T17:38:01.701Z,3.83
2023-01-04T17:40:49.749Z,3.75
2023-01-04T17:43:23.713Z,2.05
2023-01-04T17:46:20.713Z,2.72
2023-01-04T17:49:22.622Z,2.55
2023-01-04T17:52:03.729Z,2.78
2023-01-04T17:54:43.830Z,3.00
2023-01-04T17:57:24.751Z,2.45
2023-01-04T18:00:05.772Z,2.88
2023-01-04T18:02:47.840Z,2.63
2023-01-04T18:05:45.120Z,2.65
2023-01-04T18:08:26.794Z,2.03
2023-01-04T18:11:14.744Z,2.33
2023-01-04T18:13:50.835Z,2.50
2023-01-04T18:16:38.793Z,2.30
2023-01-04T18:19:12.827Z,2.72
2023-01-04T18:21:59.701Z,2.40
2023-01-04T18:24:38.257Z,1.58
2023-01-04T18:27:26.607Z,1.77
2023-01-04T18:30:15.796Z,2.15
2023-01-04T18:32:56.728Z,1.88
2023-01-04T18:35:44.784Z,2.00
2023-01-04T18:38:18.736Z,1.80
2023-01-04T18:41:06.769Z,1.42
2023-01-04T18:44:05.765Z,1.85
2023-01-04T18:46:47.881Z,1.33
2023-01-04T18:49:27.774Z,2.13
2023-01-04T18:52:08.888Z,1.60
2023-01-04T18:54:55.735Z,2.00
2023-01-04T18:57:29.781Z,2.20
2023-01-04T19:00:17.732Z,1.77
2023-01-04T19:02:51.829Z,2.65
2023-01-04T19:05:39.731Z,1.65
2023-01-04T19:08:20.766Z,1.15
2023-01-04T19:11:14.740Z,1.75
2023-01-04T19:14:01.749Z,2.28
2023-01-04T19:16:42.923Z,2.35
2023-01-04T19:19:36.706Z,1.90
2023-01-04T19:22:23.714Z,1.77
2023-01-04T19:25:04.748Z,2.28
2023-01-04T19:27:45.671Z,2.05
2023-01-04T19:30:33.765Z,2.80
2023-01-04T19:33:07.819Z,2.63
2023-01-04T19:35:58.718Z,2.10
2023-01-04T19:38:39.728Z,2.20
2023-01-04T19:41:33.845Z,2.70
2023-01-04T19:44:09.532Z,2.70
2023-01-04T19:46:56.723Z,2.28
2023-01-04T19:49:30.686Z,1.73
2023-01-04T19:52:18.761Z,1.27
2023-01-04T19:54:52.744Z,2.50
2023-01-04T19:57:40.855Z,2.90
2023-01-04T20:00:14.992Z,2.47
2023-01-04T20:02:56.019Z,2.25
2023-01-04T20:05:36.818Z,2.70
2023-01-04T20:08:10.743Z,2.22
2023-01-04T20:10:58.760Z,3.03
2023-01-04T20:13:39.759Z,2.38
2023-01-04T20:16:20.950Z,2.80
2023-01-04T20:19:01.773Z,2.50
2023-01-04T20:21:49.768Z,2.35
2023-01-04T20:24:23.711Z,3.10
2023-01-04T20:27:11.723Z,3.42
2023-01-04T20:29:45.748Z,2.65
2023-01-04T20:32:33.794Z,2.45
2023-01-04T20:35:14.741Z,3.15
2023-01-04T20:37:57.659Z,1.95
2023-01-04T20:40:37.718Z,2.80
2023-01-04T20:43:40.745Z,1.83
2023-01-04T20:46:42.324Z,3.70
2023-01-04T20:49:31.760Z,2.38
2023-01-04T20:52:19.767Z,2.10
2023-01-04T20:54:53.795Z,2.95
2023-01-04T20:57:41.760Z,3.03
2023-01-04T21:00:15.925Z,2.45
2023-01-04T21:03:03.887Z,2.08
2023-01-04T21:05:38.123Z,2.65
2023-01-04T21:08:26.770Z,2.30
2023-01-04T21:11:00.719Z,2.33
2023-01-04T21:13:49.719Z,2.00
2023-01-04T21:16:29.765Z,3.10
2023-01-04T21:19:10.892Z,2.25
2023-01-04T21:21:50.753Z,3.42
2023-01-04T21:24:38.807Z,2.80
2023-01-04T21:27:12.665Z,3.35
2023-01-04T21:30:00.765Z,2.40
2023-01-04T21:32:40.773Z,0.75
2023-01-04T21:35:28.781Z,1.45
2023-01-04T21:38:09.759Z,2.22
2023-01-04T21:40:50.828Z,3.05
2023-01-04T21:43:30.739Z,2.00
2023-01-04T21:46:19.799Z,1.98
2023-01-04T21:49:01.827Z,1.52
2023-01-04T21:51:42.854Z,1.67
2023-01-04T21:54:22.793Z,2.10
2023-01-04T21:57:03.824Z,1.58
2023-01-04T21:59:44.735Z,1.50
2023-01-04T22:02:33.834Z,1.08
2023-01-04T22:05:14.731Z,1.33
2023-01-04T22:08:02.786Z,1.15
2023-01-04T22:10:36.727Z,1.35
2023-01-04T22:13:24.753Z,1.17
2023-01-04T22:15:58.763Z,1.48
2023-01-04T22:18:46.752Z,1.42
2023-01-04T22:21:23.627Z,2.67
2023-01-04T22:24:11.727Z,1.25
2023-01-04T22:26:47.109Z,1.67
2023-01-04T22:29:34.764Z,2.00
2023-01-04T22:32:08.716Z,2.13
2023-01-04T22:34:56.804Z,1.25
2023-01-04T22:37:30.775Z,1.27
2023-01-04T22:40:19.773Z,1.02
2023-01-04T22:42:53.684Z,0.95
2023-01-04T22:45:41.755Z,0.98
2023-01-04T22:48:15.744Z,1.02
2023-01-04T22:51:03.788Z,1.13
2023-01-04T22:53:37.858Z,1.13
2023-01-04T22:56:30.742Z,0.63
2023-01-04T22:59:04.742Z,0.82
2023-01-04T23:01:52.804Z,1.38
2023-01-04T23:04:32.738Z,1.50
2023-01-04T23:07:13.852Z,1.38
2023-01-04T23:10:01.774Z,0.93
2023-01-04T23:12:36.876Z,1.30
2023-01-04T23:15:24.765Z,1.02
2023-01-04T23:17:58.893Z,1.25
2023-01-04T23:20:45.763Z,1.20
2023-01-04T23:23:19.822Z,1.92
2023-01-04T23:26:14.795Z,1.70
2023-01-04T23:28:56.793Z,2.45
2023-01-04T23:31:51.874Z,1.48
2023-01-04T23:34:38.770Z,1.20
2023-01-04T23:37:19.734Z,1.00
2023-01-04T23:40:13.770Z,1.02
2023-01-04T23:43:03.743Z,1.00
2023-01-04T23:45:37.836Z,1.08
2023-01-04T23:48:24.777Z,0.85
2023-01-04T23:51:04.889Z,0.98
2023-01-04T23:53:51.764Z,0.70
2023-01-04T23:56:32.864Z,0.52
2023-01-04T23:59:13.779Z,1.60
